Fruitville, Pennsylvania
Current Conditions -  °F | °C
As of 3:53 PM on Friday 21 Nov 2014 (Local Time) from KLNS Reporting Station
Clear Clear  
Wind Chill: 24°   Ceiling: Unl
Heat Index: 32°   Visibility: 10mi
Dew Point:   Wind: 10mph
Humidity: 37%   Direction: 310°NW
Pressure: 30.43"   Gusts: NA
Location:  40.0734°N, 76.3168°W
Report Text: KLNS 212053Z 31009KT 10SM CLR 00/M13 A3043 RMK AO2 SLP311 T00001133 53017
Loading
Personal Weather Stations






























Interactive Weather Map New forecast layout! Learn more

10-Day Weather Forecast

Advertisements
Track Severe Weather on mobile